sensor_id;sensor_type;location;lat;lon;timestamp;pressure;altitude;pressure_sealevel;temperature;humidity
72308;BME280;60257;42.638;23.376;2023-03-20T00:00:34;94940.53;;;4.86;61.88
72308;BME280;60257;42.638;23.376;2023-03-20T00:03:00;94938.63;;;4.73;61.93
72308;BME280;60257;42.638;23.376;2023-03-20T00:05:27;94939.75;;;4.72;62.28
72308;BME280;60257;42.638;23.376;2023-03-20T00:07:55;94924.63;;;4.66;62.13
72308;BME280;60257;42.638;23.376;2023-03-20T00:10:28;94916.00;;;4.64;62.12
72308;BME280;60257;42.638;23.376;2023-03-20T00:12:55;94917.41;;;4.61;62.69
72308;BME280;60257;42.638;23.376;2023-03-20T00:17:53;94915.50;;;4.62;62.59
72308;BME280;60257;42.638;23.376;2023-03-20T00:20:19;94920.91;;;4.76;62.19
72308;BME280;60257;42.638;23.376;2023-03-20T00:22:45;94926.47;;;4.71;62.32
72308;BME280;60257;42.638;23.376;2023-03-20T00:25:19;94920.53;;;4.69;62.30
72308;BME280;60257;42.638;23.376;2023-03-20T00:27:46;94910.56;;;4.64;62.32
72308;BME280;60257;42.638;23.376;2023-03-20T00:30:15;94916.41;;;4.71;62.33
72308;BME280;60257;42.638;23.376;2023-03-20T00:32:43;94910.75;;;4.68;62.09
72308;BME280;60257;42.638;23.376;2023-03-20T00:35:35;94912.78;;;4.62;62.50
72308;BME280;60257;42.638;23.376;2023-03-20T00:38:00;94908.56;;;4.56;63.12
72308;BME280;60257;42.638;23.376;2023-03-20T00:40:29;94900.03;;;4.49;62.77
72308;BME280;60257;42.638;23.376;2023-03-20T00:43:00;94899.09;;;4.53;62.56
72308;BME280;60257;42.638;23.376;2023-03-20T00:45:27;94904.53;;;4.53;62.86
72308;BME280;60257;42.638;23.376;2023-03-20T00:47:54;94901.59;;;4.50;62.86
72308;BME280;60257;42.638;23.376;2023-03-20T00:50:27;94902.63;;;4.54;62.38
72308;BME280;60257;42.638;23.376;2023-03-20T00:52:57;94887.84;;;4.46;62.47
72308;BME280;60257;42.638;23.376;2023-03-20T00:55:26;94901.72;;;4.58;62.34
72308;BME280;60257;42.638;23.376;2023-03-20T00:57:58;94894.91;;;4.47;61.67
72308;BME280;60257;42.638;23.376;2023-03-20T01:01:00;94898.41;;;4.34;61.91
72308;BME280;60257;42.638;23.376;2023-03-20T01:03:22;94887.66;;;4.29;62.56
72308;BME280;60257;42.638;23.376;2023-03-20T01:05:49;94893.38;;;4.28;62.49
72308;BME280;60257;42.638;23.376;2023-03-20T01:08:23;94892.38;;;4.37;62.21
72308;BME280;60257;42.638;23.376;2023-03-20T01:10:52;94896.91;;;4.28;62.25
72308;BME280;60257;42.638;23.376;2023-03-20T01:13:28;94889.03;;;4.26;62.49
72308;BME280;60257;42.638;23.376;2023-03-20T01:15:55;94885.94;;;4.19;62.27
72308;BME280;60257;42.638;23.376;2023-03-20T01:18:24;94882.53;;;4.14;62.21
72308;BME280;60257;42.638;23.376;2023-03-20T01:20:51;94882.81;;;4.12;62.74
72308;BME280;60257;42.638;23.376;2023-03-20T01:23:18;94884.13;;;4.01;63.15
72308;BME280;60257;42.638;23.376;2023-03-20T01:25:44;94865.84;;;3.93;62.97
72308;BME280;60257;42.638;23.376;2023-03-20T01:28:20;94882.41;;;4.05;62.96
72308;BME280;60257;42.638;23.376;2023-03-20T01:30:47;94885.81;;;4.11;62.98
72308;BME280;60257;42.638;23.376;2023-03-20T01:33:21;94875.88;;;4.06;63.01
72308;BME280;60257;42.638;23.376;2023-03-20T01:35:49;94889.75;;;4.18;62.92
72308;BME280;60257;42.638;23.376;2023-03-20T01:38:22;94892.47;;;4.18;62.98
72308;BME280;60257;42.638;23.376;2023-03-20T01:41:11;94887.53;;;4.20;62.71
72308;BME280;60257;42.638;23.376;2023-03-20T01:43:39;94862.31;;;4.06;62.84
72308;BME280;60257;42.638;23.376;2023-03-20T01:51:14;94890.78;;;4.09;63.45
72308;BME280;60257;42.638;23.376;2023-03-20T01:53:40;94889.16;;;4.08;63.50
72308;BME280;60257;42.638;23.376;2023-03-20T01:56:07;94884.31;;;4.05;63.42
72308;BME280;60257;42.638;23.376;2023-03-20T01:58:38;94894.06;;;4.06;63.69
72308;BME280;60257;42.638;23.376;2023-03-20T02:01:08;94875.66;;;3.89;63.67
72308;BME280;60257;42.638;23.376;2023-03-20T02:03:36;94891.94;;;4.03;63.61
72308;BME280;60257;42.638;23.376;2023-03-20T02:06:03;94886.81;;;3.87;63.89
72308;BME280;60257;42.638;23.376;2023-03-20T02:08:31;94879.56;;;3.83;64.02
72308;BME280;60257;42.638;23.376;2023-03-20T02:11:00;94893.38;;;3.86;64.23
72308;BME280;60257;42.638;23.376;2023-03-20T02:13:28;94886.59;;;3.70;64.71
72308;BME280;60257;42.638;23.376;2023-03-20T02:16:16;94882.28;;;3.69;64.35
72308;BME280;60257;42.638;23.376;2023-03-20T02:18:46;94872.16;;;3.42;64.70
72308;BME280;60257;42.638;23.376;2023-03-20T02:30:05;94882.69;;;3.44;65.14
72308;BME280;60257;42.638;23.376;2023-03-20T02:33:03;94882.94;;;3.47;65.36
72308;BME280;60257;42.638;23.376;2023-03-20T02:47:07;94891.59;;;3.31;65.70
72308;BME280;60257;42.638;23.376;2023-03-20T02:49:23;94884.47;;;3.35;65.49
72308;BME280;60257;42.638;23.376;2023-03-20T02:52:04;94889.03;;;3.21;66.03
72308;BME280;60257;42.638;23.376;2023-03-20T02:54:42;94879.38;;;3.15;66.29
72308;BME280;60257;42.638;23.376;2023-03-20T03:00:01;94862.00;;;3.02;66.50
72308;BME280;60257;42.638;23.376;2023-03-20T03:02:38;94871.94;;;3.06;66.73
72308;BME280;60257;42.638;23.376;2023-03-20T03:05:12;94872.06;;;2.96;67.10
72308;BME280;60257;42.638;23.376;2023-03-20T03:07:44;94869.88;;;2.98;67.10
72308;BME280;60257;42.638;23.376;2023-03-20T03:10:18;94874.63;;;2.88;67.20
72308;BME280;60257;42.638;23.376;2023-03-20T03:12:47;94874.25;;;2.94;67.12
72308;BME280;60257;42.638;23.376;2023-03-20T03:17:46;94876.09;;;2.99;66.97
72308;BME280;60257;42.638;23.376;2023-03-20T03:20:21;94872.06;;;2.96;66.54
72308;BME280;60257;42.638;23.376;2023-03-20T03:22:48;94875.88;;;2.95;67.65
72308;BME280;60257;42.638;23.376;2023-03-20T03:25:15;94858.91;;;2.90;67.75
72308;BME280;60257;42.638;23.376;2023-03-20T03:27:43;94865.28;;;2.99;67.09
72308;BME280;60257;42.638;23.376;2023-03-20T03:30:23;94874.06;;;3.09;67.24
72308;BME280;60257;42.638;23.376;2023-03-20T03:33:07;94879.16;;;3.11;66.79
72308;BME280;60257;42.638;23.376;2023-03-20T03:35:34;94864.25;;;2.95;67.12
72308;BME280;60257;42.638;23.376;2023-03-20T03:38:24;94866.84;;;2.86;67.57
72308;BME280;60257;42.638;23.376;2023-03-20T03:41:09;94867.47;;;2.97;66.86
72308;BME280;60257;42.638;23.376;2023-03-20T03:46:25;94862.28;;;2.82;67.83
72308;BME280;60257;42.638;23.376;2023-03-20T03:48:54;94883.94;;;2.82;68.32
72308;BME280;60257;42.638;23.376;2023-03-20T03:51:24;94884.59;;;2.74;68.40
72308;BME280;60257;42.638;23.376;2023-03-20T03:54:02;94874.50;;;2.60;68.77
72308;BME280;60257;42.638;23.376;2023-03-20T03:56:31;94881.38;;;2.71;68.36
72308;BME280;60257;42.638;23.376;2023-03-20T03:59:16;94878.16;;;2.69;68.53
72308;BME280;60257;42.638;23.376;2023-03-20T04:01:44;94871.50;;;2.62;68.60
72308;BME280;60257;42.638;23.376;2023-03-20T04:04:13;94869.81;;;2.66;68.87
72308;BME280;60257;42.638;23.376;2023-03-20T04:06:40;94874.06;;;2.72;68.82
72308;BME280;60257;42.638;23.376;2023-03-20T04:09:07;94866.69;;;2.78;68.33
72308;BME280;60257;42.638;23.376;2023-03-20T04:11:32;94870.63;;;2.85;68.16
72308;BME280;60257;42.638;23.376;2023-03-20T04:14:00;94847.56;;;2.69;67.96
72308;BME280;60257;42.638;23.376;2023-03-20T04:16:25;94858.38;;;2.88;67.62
72308;BME280;60257;42.638;23.376;2023-03-20T04:18:51;94851.06;;;2.88;67.81
72308;BME280;60257;42.638;23.376;2023-03-20T04:21:18;94858.09;;;2.89;67.72
72308;BME280;60257;42.638;23.376;2023-03-20T04:23:44;94861.31;;;2.91;67.70
72308;BME280;60257;42.638;23.376;2023-03-20T04:26:09;94863.22;;;2.91;67.59
72308;BME280;60257;42.638;23.376;2023-03-20T04:28:35;94861.41;;;2.86;67.70
72308;BME280;60257;42.638;23.376;2023-03-20T04:31:01;94857.28;;;2.89;67.59
72308;BME280;60257;42.638;23.376;2023-03-20T04:33:27;94854.59;;;2.89;67.68
72308;BME280;60257;42.638;23.376;2023-03-20T04:35:53;94845.22;;;2.81;67.99
72308;BME280;60257;42.638;23.376;2023-03-20T04:38:20;94849.25;;;2.84;67.67
72308;BME280;60257;42.638;23.376;2023-03-20T04:40:47;94853.91;;;2.97;67.45
72308;BME280;60257;42.638;23.376;2023-03-20T04:43:13;94854.16;;;3.00;67.14
72308;BME280;60257;42.638;23.376;2023-03-20T04:45:39;94865.47;;;3.02;67.22
72308;BME280;60257;42.638;23.376;2023-03-20T04:48:06;94852.44;;;3.04;67.33
72308;BME280;60257;42.638;23.376;2023-03-20T04:50:32;94864.31;;;3.08;67.29
72308;BME280;60257;42.638;23.376;2023-03-20T04:52:57;94870.53;;;3.09;66.87
72308;BME280;60257;42.638;23.376;2023-03-20T04:55:23;94870.31;;;3.05;66.97
72308;BME280;60257;42.638;23.376;2023-03-20T04:57:49;94885.75;;;3.05;67.21
72308;BME280;60257;42.638;23.376;2023-03-20T05:00:15;94890.53;;;2.94;67.39
72308;BME280;60257;42.638;23.376;2023-03-20T05:02:41;94891.94;;;2.92;67.53
72308;BME280;60257;42.638;23.376;2023-03-20T05:05:07;94886.66;;;3.00;67.07
72308;BME280;60257;42.638;23.376;2023-03-20T05:07:33;94889.63;;;3.18;66.54
72308;BME280;60257;42.638;23.376;2023-03-20T05:09:58;94890.75;;;3.17;66.18
72308;BME280;60257;42.638;23.376;2023-03-20T05:12:28;94903.31;;;3.26;65.99
72308;BME280;60257;42.638;23.376;2023-03-20T05:14:58;94898.69;;;3.27;66.49
72308;BME280;60257;42.638;23.376;2023-03-20T05:17:23;94892.13;;;3.33;66.56
72308;BME280;60257;42.638;23.376;2023-03-20T05:19:49;94890.69;;;3.35;66.82
72308;BME280;60257;42.638;23.376;2023-03-20T05:22:15;94876.72;;;3.28;66.56
72308;BME280;60257;42.638;23.376;2023-03-20T05:24:41;94888.63;;;3.46;66.23
72308;BME280;60257;42.638;23.376;2023-03-20T05:27:06;94899.81;;;3.58;66.26
72308;BME280;60257;42.638;23.376;2023-03-20T05:29:32;94900.22;;;3.65;66.21
72308;BME280;60257;42.638;23.376;2023-03-20T05:31:57;94906.28;;;3.76;65.76
72308;BME280;60257;42.638;23.376;2023-03-20T05:34:22;94901.50;;;3.86;65.28
72308;BME280;60257;42.638;23.376;2023-03-20T05:36:48;94912.97;;;3.97;65.19
72308;BME280;60257;42.638;23.376;2023-03-20T05:39:13;94905.50;;;4.03;64.71
72308;BME280;60257;42.638;23.376;2023-03-20T05:41:39;94884.94;;;4.02;64.24
72308;BME280;60257;42.638;23.376;2023-03-20T05:44:04;94900.94;;;4.17;64.19
72308;BME280;60257;42.638;23.376;2023-03-20T05:46:30;94903.03;;;4.20;64.13
72308;BME280;60257;42.638;23.376;2023-03-20T05:48:55;94899.03;;;4.31;63.90
72308;BME280;60257;42.638;23.376;2023-03-20T05:51:21;94897.81;;;4.37;64.20
72308;BME280;60257;42.638;23.376;2023-03-20T05:53:46;94906.66;;;4.56;64.10
72308;BME280;60257;42.638;23.376;2023-03-20T05:56:12;94904.00;;;4.65;63.66
72308;BME280;60257;42.638;23.376;2023-03-20T05:58:37;94919.22;;;4.80;63.26
72308;BME280;60257;42.638;23.376;2023-03-20T06:01:03;94918.06;;;4.94;62.69
72308;BME280;60257;42.638;23.376;2023-03-20T06:03:29;94897.63;;;4.97;62.42
72308;BME280;60257;42.638;23.376;2023-03-20T06:05:54;94904.94;;;5.10;62.75
72308;BME280;60257;42.638;23.376;2023-03-20T06:08:20;94898.28;;;5.16;62.70
72308;BME280;60257;42.638;23.376;2023-03-20T06:10:45;94899.63;;;5.27;62.18
72308;BME280;60257;42.638;23.376;2023-03-20T06:13:11;94890.66;;;5.27;61.74
72308;BME280;60257;42.638;23.376;2023-03-20T06:15:36;94878.38;;;5.29;61.83
72308;BME280;60257;42.638;23.376;2023-03-20T06:18:02;94878.88;;;5.31;61.46
72308;BME280;60257;42.638;23.376;2023-03-20T06:20:27;94900.66;;;5.31;61.63
72308;BME280;60257;42.638;23.376;2023-03-20T06:22:53;94895.06;;;5.36;61.11
72308;BME280;60257;42.638;23.376;2023-03-20T06:25:18;94903.88;;;5.56;61.25
72308;BME280;60257;42.638;23.376;2023-03-20T06:27:46;94912.94;;;5.73;60.88
72308;BME280;60257;42.638;23.376;2023-03-20T06:30:13;94905.47;;;5.79;60.34
72308;BME280;60257;42.638;23.376;2023-03-20T06:32:39;94906.22;;;5.93;60.49
72308;BME280;60257;42.638;23.376;2023-03-20T06:35:05;94911.88;;;6.05;60.33
72308;BME280;60257;42.638;23.376;2023-03-20T06:37:32;94910.00;;;6.14;60.00
72308;BME280;60257;42.638;23.376;2023-03-20T06:39:58;94906.03;;;6.21;59.99
72308;BME280;60257;42.638;23.376;2023-03-20T06:42:23;94899.31;;;6.18;58.74
72308;BME280;60257;42.638;23.376;2023-03-20T06:44:49;94905.19;;;6.11;59.19
72308;BME280;60257;42.638;23.376;2023-03-20T06:47:14;94899.75;;;6.11;59.14
72308;BME280;60257;42.638;23.376;2023-03-20T06:49:40;94910.28;;;6.44;58.68
72308;BME280;60257;42.638;23.376;2023-03-20T06:52:06;94913.34;;;6.51;58.06
72308;BME280;60257;42.638;23.376;2023-03-20T06:54:33;94909.22;;;6.53;57.91
72308;BME280;60257;42.638;23.376;2023-03-20T06:56:58;94897.03;;;6.60;58.10
72308;BME280;60257;42.638;23.376;2023-03-20T06:59:24;94884.25;;;6.69;57.60
72308;BME280;60257;42.638;23.376;2023-03-20T07:01:51;94895.53;;;6.93;57.90
72308;BME280;60257;42.638;23.376;2023-03-20T07:04:17;94885.47;;;7.11;57.95
72308;BME280;60257;42.638;23.376;2023-03-20T07:06:42;94890.75;;;7.24;57.91
72308;BME280;60257;42.638;23.376;2023-03-20T07:09:08;94881.78;;;7.32;57.01
72308;BME280;60257;42.638;23.376;2023-03-20T07:11:33;94892.38;;;7.34;56.87
72308;BME280;60257;42.638;23.376;2023-03-20T07:14:00;94887.84;;;7.04;57.20
72308;BME280;60257;42.638;23.376;2023-03-20T07:16:25;94892.16;;;7.05;57.25
72308;BME280;60257;42.638;23.376;2023-03-20T07:18:51;94877.09;;;7.16;57.05
72308;BME280;60257;42.638;23.376;2023-03-20T07:21:19;94886.41;;;7.32;56.65
72308;BME280;60257;42.638;23.376;2023-03-20T07:23:46;94890.59;;;7.47;56.30
72308;BME280;60257;42.638;23.376;2023-03-20T07:26:11;94886.41;;;7.66;56.13
72308;BME280;60257;42.638;23.376;2023-03-20T07:28:38;94882.19;;;7.86;55.70
72308;BME280;60257;42.638;23.376;2023-03-20T07:31:04;94879.44;;;8.03;55.37
72308;BME280;60257;42.638;23.376;2023-03-20T07:33:30;94863.97;;;8.07;55.05
72308;BME280;60257;42.638;23.376;2023-03-20T07:35:56;94874.44;;;8.05;54.83
72308;BME280;60257;42.638;23.376;2023-03-20T07:38:21;94878.91;;;8.19;54.89
72308;BME280;60257;42.638;23.376;2023-03-20T07:40:47;94870.38;;;8.20;54.55
72308;BME280;60257;42.638;23.376;2023-03-20T07:43:16;94876.16;;;8.36;54.59
72308;BME280;60257;42.638;23.376;2023-03-20T07:45:42;94887.66;;;8.50;54.35
72308;BME280;60257;42.638;23.376;2023-03-20T07:48:08;94876.69;;;8.59;54.10
72308;BME280;60257;42.638;23.376;2023-03-20T07:50:33;94875.16;;;8.70;54.03
72308;BME280;60257;42.638;23.376;2023-03-20T07:52:59;94858.81;;;8.61;53.62
72308;BME280;60257;42.638;23.376;2023-03-20T07:55:24;94880.06;;;8.85;53.82
72308;BME280;60257;42.638;23.376;2023-03-20T07:57:50;94870.63;;;8.82;53.30
72308;BME280;60257;42.638;23.376;2023-03-20T08:00:17;94880.81;;;8.94;53.26
72308;BME280;60257;42.638;23.376;2023-03-20T08:02:43;94887.03;;;9.03;52.79
72308;BME280;60257;42.638;23.376;2023-03-20T08:05:09;94890.75;;;8.99;52.71
72308;BME280;60257;42.638;23.376;2023-03-20T08:07:35;94873.97;;;9.09;52.23
72308;BME280;60257;42.638;23.376;2023-03-20T08:10:01;94874.78;;;9.30;52.11
72308;BME280;60257;42.638;23.376;2023-03-20T08:12:27;94881.00;;;9.39;52.13
72308;BME280;60257;42.638;23.376;2023-03-20T08:14:53;94868.25;;;9.43;51.75
72308;BME280;60257;42.638;23.376;2023-03-20T08:17:18;94873.22;;;9.62;50.81
72308;BME280;60257;42.638;23.376;2023-03-20T08:19:44;94869.84;;;9.65;50.60
72308;BME280;60257;42.638;23.376;2023-03-20T08:22:10;94890.75;;;9.49;51.56
72308;BME280;60257;42.638;23.376;2023-03-20T08:24:35;94882.38;;;9.45;51.55
72308;BME280;60257;42.638;23.376;2023-03-20T08:27:01;94879.56;;;9.54;52.14
72308;BME280;60257;42.638;23.376;2023-03-20T08:29:26;94876.66;;;9.59;51.48
72308;BME280;60257;42.638;23.376;2023-03-20T08:31:52;94881.25;;;9.67;51.84
72308;BME280;60257;42.638;23.376;2023-03-20T08:34:17;94889.59;;;9.71;51.44
72308;BME280;60257;42.638;23.376;2023-03-20T08:36:43;94871.88;;;9.68;51.45
72308;BME280;60257;42.638;23.376;2023-03-20T08:39:09;94880.63;;;9.82;51.43
72308;BME280;60257;42.638;23.376;2023-03-20T08:41:38;94877.94;;;9.94;51.79
72308;BME280;60257;42.638;23.376;2023-03-20T08:44:04;94879.84;;;9.94;51.17
72308;BME280;60257;42.638;23.376;2023-03-20T08:46:30;94888.56;;;9.96;51.25
72308;BME280;60257;42.638;23.376;2023-03-20T08:48:56;94874.72;;;9.92;51.33
72308;BME280;60257;42.638;23.376;2023-03-20T08:51:24;94877.13;;;9.94;51.14
72308;BME280;60257;42.638;23.376;2023-03-20T08:53:49;94865.28;;;10.02;51.44
72308;BME280;60257;42.638;23.376;2023-03-20T08:56:15;94870.13;;;10.17;51.27
72308;BME280;60257;42.638;23.376;2023-03-20T08:58:40;94877.22;;;10.30;50.96
72308;BME280;60257;42.638;23.376;2023-03-20T09:01:07;94869.47;;;10.32;50.76
72308;BME280;60257;42.638;23.376;2023-03-20T09:03:34;94875.53;;;10.38;50.61
72308;BME280;60257;42.638;23.376;2023-03-20T09:06:00;94872.25;;;10.45;50.41
72308;BME280;60257;42.638;23.376;2023-03-20T09:08:26;94866.66;;;10.53;50.15
72308;BME280;60257;42.638;23.376;2023-03-20T09:10:52;94858.31;;;10.37;50.02
72308;BME280;60257;42.638;23.376;2023-03-20T09:13:18;94855.56;;;10.50;49.72
72308;BME280;60257;42.638;23.376;2023-03-20T09:15:43;94865.97;;;10.44;49.41
72308;BME280;60257;42.638;23.376;2023-03-20T09:18:08;94862.28;;;10.40;49.57
72308;BME280;60257;42.638;23.376;2023-03-20T09:20:34;94866.66;;;10.53;49.66
72308;BME280;60257;42.638;23.376;2023-03-20T09:23:00;94856.59;;;10.69;49.63
72308;BME280;60257;42.638;23.376;2023-03-20T09:25:25;94851.47;;;10.80;49.49
72308;BME280;60257;42.638;23.376;2023-03-20T09:27:54;94852.03;;;10.86;48.50
72308;BME280;60257;42.638;23.376;2023-03-20T09:30:21;94851.09;;;10.94;48.10
72308;BME280;60257;42.638;23.376;2023-03-20T09:32:50;94838.91;;;10.91;48.38
72308;BME280;60257;42.638;23.376;2023-03-20T09:35:17;94837.97;;;10.99;47.99
72308;BME280;60257;42.638;23.376;2023-03-20T09:37:43;94841.22;;;11.17;48.86
72308;BME280;60257;42.638;23.376;2023-03-20T09:40:25;94833.06;;;11.33;48.53
72308;BME280;60257;42.638;23.376;2023-03-20T09:43:06;94828.94;;;11.39;47.35
72308;BME280;60257;42.638;23.376;2023-03-20T09:53:55;94777.88;;;11.78;47.09
72308;BME280;60257;42.638;23.376;2023-03-20T09:56:24;94792.03;;;12.08;45.95
72308;BME280;60257;42.638;23.376;2023-03-20T09:58:54;94789.81;;;12.13;44.94
72308;BME280;60257;42.638;23.376;2023-03-20T10:01:25;94785.13;;;12.29;45.48
72308;BME280;60257;42.638;23.376;2023-03-20T10:04:07;94784.06;;;12.50;45.85
72308;BME280;60257;42.638;23.376;2023-03-20T10:06:34;94777.06;;;12.52;44.63
72308;BME280;60257;42.638;23.376;2023-03-20T10:08:59;94769.06;;;12.47;44.22
72308;BME280;60257;42.638;23.376;2023-03-20T10:11:49;94762.03;;;12.50;45.01
72308;BME280;60257;42.638;23.376;2023-03-20T10:14:32;94760.19;;;12.54;44.47
72308;BME280;60257;42.638;23.376;2023-03-20T10:19:43;94756.72;;;12.57;44.21
72308;BME280;60257;42.638;23.376;2023-03-20T10:28:11;94751.97;;;12.73;43.41
72308;BME280;60257;42.638;23.376;2023-03-20T10:40:02;94739.41;;;13.26;42.43
72308;BME280;60257;42.638;23.376;2023-03-20T10:42:19;94736.59;;;13.42;42.10
72308;BME280;60257;42.638;23.376;2023-03-20T10:44:55;94721.75;;;13.46;41.35
72308;BME280;60257;42.638;23.376;2023-03-20T10:47:24;94727.38;;;13.54;40.78
72308;BME280;60257;42.638;23.376;2023-03-20T10:49:56;94726.84;;;13.48;40.50
72308;BME280;60257;42.638;23.376;2023-03-20T10:52:28;94720.28;;;13.53;40.49
72308;BME280;60257;42.638;23.376;2023-03-20T10:55:03;94722.00;;;13.61;40.13
72308;BME280;60257;42.638;23.376;2023-03-20T10:57:36;94718.91;;;13.62;39.58
72308;BME280;60257;42.638;23.376;2023-03-20T11:00:04;94704.09;;;13.70;40.10
72308;BME280;60257;42.638;23.376;2023-03-20T11:02:35;94706.59;;;13.79;39.84
72308;BME280;60257;42.638;23.376;2023-03-20T11:07:46;94694.53;;;14.10;38.19
72308;BME280;60257;42.638;23.376;2023-03-20T11:10:14;94683.34;;;14.25;37.72
72308;BME280;60257;42.638;23.376;2023-03-20T11:12:46;94692.59;;;14.37;37.89
72308;BME280;60257;42.638;23.376;2023-03-20T11:15:45;94679.97;;;14.36;37.97
72308;BME280;60257;42.638;23.376;2023-03-20T11:18:12;94680.47;;;14.41;37.61
72308;BME280;60257;42.638;23.376;2023-03-20T11:21:00;94671.34;;;14.63;38.77
72308;BME280;60257;42.638;23.376;2023-03-20T11:23:28;94663.38;;;14.55;37.39
72308;BME280;60257;42.638;23.376;2023-03-20T11:26:07;94660.81;;;14.69;37.38
72308;BME280;60257;42.638;23.376;2023-03-20T11:28:40;94656.69;;;14.86;37.03
72308;BME280;60257;42.638;23.376;2023-03-20T11:31:16;94653.22;;;14.92;37.03
72308;BME280;60257;42.638;23.376;2023-03-20T11:33:44;94648.31;;;15.09;36.77
72308;BME280;60257;42.638;23.376;2023-03-20T11:36:20;94651.91;;;15.13;36.33
72308;BME280;60257;42.638;23.376;2023-03-20T11:38:49;94648.34;;;15.12;36.47
72308;BME280;60257;42.638;23.376;2023-03-20T11:41:25;94636.56;;;15.19;36.21
72308;BME280;60257;42.638;23.376;2023-03-20T11:43:51;94644.63;;;15.31;35.81
72308;BME280;60257;42.638;23.376;2023-03-20T11:46:19;94634.44;;;15.38;35.12
72308;BME280;60257;42.638;23.376;2023-03-20T11:49:01;94612.78;;;15.44;35.18
72308;BME280;60257;42.638;23.376;2023-03-20T11:51:27;94622.50;;;15.64;33.81
72308;BME280;60257;42.638;23.376;2023-03-20T11:53:59;94610.25;;;15.65;34.44
72308;BME280;60257;42.638;23.376;2023-03-20T11:56:28;94615.84;;;15.69;34.52
72308;BME280;60257;42.638;23.376;2023-03-20T11:59:13;94604.53;;;15.85;34.33
72308;BME280;60257;42.638;23.376;2023-03-20T12:01:45;94608.94;;;15.93;34.38
72308;BME280;60257;42.638;23.376;2023-03-20T12:04:32;94605.84;;;16.01;34.17
72308;BME280;60257;42.638;23.376;2023-03-20T12:09:44;94597.72;;;16.26;34.73
72308;BME280;60257;42.638;23.376;2023-03-20T12:15:17;94590.72;;;16.43;31.73
72308;BME280;60257;42.638;23.376;2023-03-20T12:23:20;94577.38;;;16.55;31.90
72308;BME280;60257;42.638;23.376;2023-03-20T12:26:02;94573.97;;;16.80;33.11
72308;BME280;60257;42.638;23.376;2023-03-20T12:34:14;94574.38;;;16.85;29.63
72308;BME280;60257;42.638;23.376;2023-03-20T12:36:47;94566.09;;;16.85;29.75
72308;BME280;60257;42.638;23.376;2023-03-20T12:39:18;94568.47;;;16.87;30.15
72308;BME280;60257;42.638;23.376;2023-03-20T12:44:55;94551.91;;;17.12;29.81
72308;BME280;60257;42.638;23.376;2023-03-20T12:52:50;94548.00;;;17.27;28.52
72308;BME280;60257;42.638;23.376;2023-03-20T12:58:21;94543.66;;;17.26;28.76
72308;BME280;60257;42.638;23.376;2023-03-20T13:01:03;94542.06;;;17.36;28.91
72308;BME280;60257;42.638;23.376;2023-03-20T13:06:31;94526.66;;;17.52;28.94
72308;BME280;60257;42.638;23.376;2023-03-20T13:12:02;94518.38;;;17.66;27.41
72308;BME280;60257;42.638;23.376;2023-03-20T13:24:54;94484.72;;;17.79;26.81
72308;BME280;60257;42.638;23.376;2023-03-20T13:27:36;94506.91;;;17.93;27.13
72308;BME280;60257;42.638;23.376;2023-03-20T13:30:25;94501.75;;;17.84;27.00
72308;BME280;60257;42.638;23.376;2023-03-20T13:38:43;94488.66;;;18.02;27.89
72308;BME280;60257;42.638;23.376;2023-03-20T13:41:10;94486.28;;;17.97;26.15
72308;BME280;60257;42.638;23.376;2023-03-20T13:43:44;94481.13;;;17.99;26.02
72308;BME280;60257;42.638;23.376;2023-03-20T13:46:23;94481.91;;;18.00;25.99
72308;BME280;60257;42.638;23.376;2023-03-20T13:48:52;94478.72;;;18.05;25.82
72308;BME280;60257;42.638;23.376;2023-03-20T13:56:58;94467.19;;;18.28;26.61
72308;BME280;60257;42.638;23.376;2023-03-20T14:07:41;94460.75;;;18.52;25.22
72308;BME280;60257;42.638;23.376;2023-03-20T14:13:02;94443.19;;;18.83;28.84
72308;BME280;60257;42.638;23.376;2023-03-20T14:15:33;94445.88;;;18.98;29.99
72308;BME280;60257;42.638;23.376;2023-03-20T14:18:14;94438.00;;;18.93;26.19
72308;BME280;60257;42.638;23.376;2023-03-20T14:20:42;94440.38;;;18.91;25.12
72308;BME280;60257;42.638;23.376;2023-03-20T14:23:20;94443.53;;;18.93;24.69
72308;BME280;60257;42.638;23.376;2023-03-20T14:25:53;94427.28;;;18.91;24.43
72308;BME280;60257;42.638;23.376;2023-03-20T14:30:46;94429.72;;;18.78;24.21
72308;BME280;60257;42.638;23.376;2023-03-20T14:35:44;94431.78;;;18.64;24.59
72308;BME280;60257;42.638;23.376;2023-03-20T14:46:29;94425.47;;;18.56;24.16
72308;BME280;60257;42.638;23.376;2023-03-20T14:49:03;94417.53;;;18.55;24.35
72308;BME280;60257;42.638;23.376;2023-03-20T14:51:41;94424.25;;;18.61;25.16
72308;BME280;60257;42.638;23.376;2023-03-20T14:56:50;94418.34;;;18.44;24.48
72308;BME280;60257;42.638;23.376;2023-03-20T14:59:20;94419.19;;;18.34;24.94
72308;BME280;60257;42.638;23.376;2023-03-20T15:01:59;94426.75;;;18.23;24.49
72308;BME280;60257;42.638;23.376;2023-03-20T15:04:37;94423.97;;;18.20;24.85
72308;BME280;60257;42.638;23.376;2023-03-20T15:07:15;94427.56;;;18.13;24.79
72308;BME280;60257;42.638;23.376;2023-03-20T15:09:44;94419.66;;;18.04;25.15
72308;BME280;60257;42.638;23.376;2023-03-20T15:12:15;94424.81;;;18.10;25.88
72308;BME280;60257;42.638;23.376;2023-03-20T15:14:48;94422.44;;;18.04;24.54
72308;BME280;60257;42.638;23.376;2023-03-20T15:17:22;94407.81;;;17.93;24.40
72308;BME280;60257;42.638;23.376;2023-03-20T15:19:48;94416.13;;;17.90;24.67
72308;BME280;60257;42.638;23.376;2023-03-20T15:22:19;94418.94;;;17.83;25.02
72308;BME280;60257;42.638;23.376;2023-03-20T15:24:52;94418.97;;;17.72;25.32
72308;BME280;60257;42.638;23.376;2023-03-20T15:27:19;94415.78;;;17.66;25.61
72308;BME280;60257;42.638;23.376;2023-03-20T15:29:51;94399.50;;;17.58;25.33
72308;BME280;60257;42.638;23.376;2023-03-20T15:32:17;94404.69;;;17.56;25.39
72308;BME280;60257;42.638;23.376;2023-03-20T15:34:47;94409.06;;;17.64;25.53
72308;BME280;60257;42.638;23.376;2023-03-20T15:37:20;94411.03;;;17.63;25.57